Time;durP1;ratioP1;P1;durP2;ratioP2;P2;SDS_P1;SDS_P2;PMS_P1;PMS_P2;Temp;Humidity;BMP_temperature;BMP_pressure;BME280_temperature;BME280_humidity;BME280_pressure;Samples;Min_cycle;Max_cycle;Signal;HPM_P1;HPM_P2
2020/12/05 00:01:12;;;;;;;7.38;4.57;;;2.60;85.30;;;;;;5030923;28;20030;-84
2020/12/05 00:03:41;;;;;;;7.68;4.55;;;2.60;85.50;;;;;;5032483;28;20536;-86
2020/12/05 00:06:07;;;;;;;7.32;4.68;;;2.60;85.50;;;;;;5018704;28;20119;-87
2020/12/05 00:08:33;;;;;;;7.35;4.82;;;2.50;85.60;;;;;;5032547;28;20447;-84
2020/12/05 00:11:02;;;;;;;8.23;4.90;;;2.60;85.70;;;;;;5031307;28;20017;-84
2020/12/05 00:13:28;;;;;;;7.97;4.70;;;2.60;85.80;;;;;;5016842;28;20037;-83
2020/12/05 00:15:53;;;;;;;7.13;4.97;;;2.50;85.90;;;;;;5022386;28;20030;-84
2020/12/05 00:18:22;;;;;;;8.95;4.88;;;2.60;86.00;;;;;;5016238;28;20040;-84
2020/12/05 00:20:54;;;;;;;7.28;5.10;;;2.60;86.00;;;;;;5010824;28;20038;-85
2020/12/05 00:23:23;;;;;;;7.38;5.00;;;2.60;86.10;;;;;;4995706;28;20056;-84
2020/12/05 00:25:48;;;;;;;8.57;5.70;;;2.60;86.20;;;;;;5014588;28;20029;-84
2020/12/05 00:28:14;;;;;;;7.53;5.30;;;2.60;86.30;;;;;;5032256;28;20448;-84
2020/12/05 00:30:40;;;;;;;8.25;5.20;;;2.60;86.40;;;;;;5032092;28;20025;-87
2020/12/05 00:33:10;;;;;;;7.57;4.90;;;2.60;86.40;;;;;;5031154;28;20029;-85
2020/12/05 00:35:36;;;;;;;7.00;4.88;;;2.60;86.50;;;;;;5031482;28;20033;-84
2020/12/05 00:38:05;;;;;;;9.18;5.15;;;2.50;86.50;;;;;;5032180;28;20186;-84
2020/12/05 00:40:33;;;;;;;6.80;4.60;;;2.60;86.70;;;;;;5033260;28;20364;-85
2020/12/05 00:42:59;;;;;;;7.97;4.85;;;2.50;86.60;;;;;;5001697;28;20038;-83
2020/12/05 00:45:24;;;;;;;7.72;4.85;;;2.50;86.70;;;;;;5018022;28;20385;-84
2020/12/05 00:47:53;;;;;;;8.27;4.68;;;2.60;86.80;;;;;;5033414;28;20022;-84
2020/12/05 00:50:18;;;;;;;6.63;4.38;;;2.60;86.80;;;;;;5034203;28;20037;-84
2020/12/05 00:52:46;;;;;;;8.52;5.03;;;2.60;86.90;;;;;;5034083;28;20038;-83
2020/12/05 00:55:14;;;;;;;7.35;4.70;;;2.60;86.80;;;;;;5024437;28;20391;-87
2020/12/05 00:57:40;;;;;;;9.98;5.70;;;2.60;86.90;;;;;;5030776;28;20022;-85
2020/12/05 01:00:07;;;;;;;10.43;5.55;;;2.60;86.90;;;;;;5033847;28;20038;-85
2020/12/05 01:02:33;;;;;;;7.70;5.15;;;2.60;86.90;;;;;;5031952;28;20030;-86
2020/12/05 01:05:00;;;;;;;7.28;4.70;;;2.60;86.90;;;;;;5026187;28;20048;-84
2020/12/05 01:07:28;;;;;;;8.15;4.65;;;2.60;87.00;;;;;;5021865;28;20034;-85
2020/12/05 01:09:56;;;;;;;7.40;4.80;;;2.50;86.90;;;;;;5000178;28;20056;-84
2020/12/05 01:12:24;;;;;;;6.72;4.97;;;2.50;86.90;;;;;;5017315;28;20033;-84
2020/12/05 01:14:50;;;;;;;6.28;4.53;;;2.50;86.90;;;;;;5033915;28;20064;-84
2020/12/05 01:17:15;;;;;;;7.50;4.63;;;2.40;86.80;;;;;;5033482;28;20428;-88
2020/12/05 01:19:41;;;;;;;5.97;4.50;;;2.40;86.90;;;;;;5013958;28;20036;-85
2020/12/05 01:22:07;;;;;;;7.07;5.13;;;2.40;87.00;;;;;;5024505;28;20032;-84
2020/12/05 01:24:33;;;;;;;8.93;5.10;;;2.40;87.00;;;;;;5029168;28;20037;-84
2020/12/05 01:26:58;;;;;;;6.95;4.53;;;2.40;87.00;;;;;;5034316;28;20021;-84
2020/12/05 01:29:24;;;;;;;6.93;4.93;;;2.30;86.90;;;;;;5033587;28;20474;-84
2020/12/05 01:31:50;;;;;;;7.70;5.07;;;2.40;87.00;;;;;;5033613;28;20364;-84
2020/12/05 01:34:15;;;;;;;6.45;4.45;;;2.30;86.90;;;;;;5034306;28;20029;-83
2020/12/05 01:36:47;;;;;;;7.47;4.85;;;2.30;87.60;;;;;;5013429;28;20034;-84
2020/12/05 01:39:13;;;;;;;7.57;5.00;;;2.20;87.00;;;;;;5050762;28;20396;-83
2020/12/05 01:41:39;;;;;;;6.85;4.43;;;2.20;87.10;;;;;;5037446;28;20025;-84
2020/12/05 01:44:05;;;;;;;6.65;4.60;;;2.20;87.10;;;;;;5014160;28;20153;-84
2020/12/05 01:46:37;;;;;;;8.88;5.00;;;2.20;87.20;;;;;;5013253;28;20050;-83
2020/12/05 01:49:06;;;;;;;5.60;4.50;;;2.20;87.20;;;;;;5032566;28;20018;-83
2020/12/05 01:51:32;;;;;;;7.78;4.88;;;2.20;87.20;;;;;;5030351;28;20042;-83
2020/12/05 01:53:59;;;;;;;5.55;3.90;;;2.20;87.30;;;;;;5008377;28;20120;-84
2020/12/05 01:56:26;;;;;;;6.53;4.30;;;2.20;87.40;;;;;;5029689;28;20022;-83
2020/12/05 01:58:52;;;;;;;8.40;4.60;;;2.20;87.50;;;;;;5016568;28;20542;-84
2020/12/05 02:01:26;;;;;;;7.03;4.88;;;2.10;87.40;;;;;;5030268;28;20030;-84
2020/12/05 02:03:57;;;;;;;5.47;3.95;;;2.10;87.50;;;;;;5028979;28;20032;-83
2020/12/05 02:07:04;;;;;;;5.00;3.88;;;2.10;87.50;;;;;;5033042;28;20095;-84
2020/12/05 02:09:39;;;;;;;6.32;3.97;;;2.10;87.70;;;;;;5032836;28;20370;-84
2020/12/05 02:12:33;;;;;;;7.55;4.43;;;2.10;87.70;;;;;;5028133;28;20025;-83
2020/12/05 02:15:12;;;;;;;5.55;4.30;;;2.10;87.80;;;;;;5033368;28;20028;-83
2020/12/05 02:17:43;;;;;;;7.13;4.75;;;2.10;87.80;;;;;;5033206;28;20098;-83
2020/12/05 02:20:11;;;;;;;5.63;4.10;;;2.10;87.80;;;;;;5030507;28;20371;-83
2020/12/05 02:22:45;;;;;;;5.30;4.05;;;2.10;87.90;;;;;;5031936;28;20195;-83
2020/12/05 02:25:12;;;;;;;5.40;3.80;;;2.10;88.00;;;;;;5033185;28;20025;-84
2020/12/05 02:27:38;;;;;;;6.43;4.38;;;2.10;88.40;;;;;;5033445;28;20113;-83
2020/12/05 02:30:05;;;;;;;8.18;4.43;;;2.10;88.00;;;;;;5060047;28;20116;-83
2020/12/05 02:32:31;;;;;;;6.25;3.90;;;2.10;88.10;;;;;;5028242;28;20474;-83
2020/12/05 02:34:56;;;;;;;6.28;4.30;;;2.10;88.10;;;;;;5016065;28;20029;-83
2020/12/05 02:37:27;;;;;;;7.40;4.25;;;2.10;88.20;;;;;;5033045;28;20029;-87
2020/12/05 02:39:54;;;;;;;6.97;4.00;;;2.10;88.30;;;;;;5050987;28;20033;-83
2020/12/05 02:42:19;;;;;;;8.80;4.80;;;2.10;88.40;;;;;;5031969;28;20025;-83
2020/12/05 02:44:51;;;;;;;6.88;4.47;;;2.10;88.40;;;;;;5015285;28;20393;-84
2020/12/05 02:47:18;;;;;;;7.35;4.25;;;2.20;88.50;;;;;;5013069;28;20541;-83
2020/12/05 02:49:44;;;;;;;5.82;4.03;;;2.20;88.50;;;;;;5022985;28;20807;-84
2020/12/05 02:52:10;;;;;;;6.22;3.88;;;2.20;88.60;;;;;;5012412;28;20034;-83
2020/12/05 02:54:35;;;;;;;7.07;4.70;;;2.20;88.60;;;;;;5017728;28;20128;-83
2020/12/05 02:57:02;;;;;;;7.65;4.22;;;2.30;88.70;;;;;;5031567;28;20040;-83
2020/12/05 02:59:28;;;;;;;7.28;4.60;;;2.30;88.70;;;;;;5025305;28;20033;-83
2020/12/05 03:01:55;;;;;;;6.65;4.70;;;2.30;88.70;;;;;;5026784;28;20108;-84
2020/12/05 03:04:20;;;;;;;8.55;4.80;;;2.30;88.80;;;;;;5016233;28;20132;-83
2020/12/05 03:06:46;;;;;;;7.03;5.03;;;2.30;88.80;;;;;;5011231;28;20141;-84
2020/12/05 03:09:12;;;;;;;7.03;4.50;;;2.30;88.80;;;;;;5030720;28;20034;-83
2020/12/05 03:11:38;;;;;;;6.68;4.13;;;2.30;88.90;;;;;;5027444;28;20039;-83
2020/12/05 03:14:04;;;;;;;7.40;4.57;;;2.30;89.00;;;;;;5032395;28;20029;-83
2020/12/05 03:16:34;;;;;;;6.78;4.35;;;2.30;89.00;;;;;;5031756;28;20117;-84
2020/12/05 03:19:03;;;;;;;6.80;4.47;;;2.40;89.10;;;;;;5015469;28;20470;-83
2020/12/05 03:21:31;;;;;;;6.80;4.93;;;2.40;89.10;;;;;;5046021;28;20483;-85
2020/12/05 03:23:57;;;;;;;6.95;4.55;;;2.40;89.20;;;;;;5015798;28;20092;-84
2020/12/05 03:26:22;;;;;;;5.97;4.07;;;2.40;89.20;;;;;;5012406;28;20499;-83
2020/12/05 03:28:48;;;;;;;7.18;4.43;;;2.40;89.20;;;;;;5023091;28;20852;-83
2020/12/05 03:31:31;;;;;;;6.88;3.95;;;2.40;89.30;;;;;;5024112;28;20065;-85
2020/12/05 03:33:58;;;;;;;5.65;4.00;;;2.40;89.30;;;;;;5026967;28;20026;-86
2020/12/05 03:36:24;;;;;;;7.13;4.55;;;2.40;89.30;;;;;;4998775;28;20022;-83
2020/12/05 03:38:53;;;;;;;7.05;4.15;;;2.50;89.30;;;;;;5015135;28;20036;-83
2020/12/05 03:41:19;;;;;;;8.02;4.93;;;2.50;89.40;;;;;;4999830;28;20372;-84
2020/12/05 03:43:44;;;;;;;7.00;4.43;;;2.50;89.40;;;;;;5020722;28;20046;-84
2020/12/05 03:46:10;;;;;;;6.72;4.43;;;2.60;89.50;;;;;;5028728;28;20103;-84
2020/12/05 03:48:38;;;;;;;6.63;4.70;;;2.60;89.60;;;;;;5011232;28;20463;-83
2020/12/05 03:51:04;;;;;;;6.70;4.38;;;2.60;89.60;;;;;;4997950;28;20391;-83
2020/12/05 03:53:29;;;;;;;7.10;5.13;;;2.60;89.60;;;;;;5011364;28;20036;-83
2020/12/05 03:55:55;;;;;;;6.93;5.00;;;2.60;89.60;;;;;;5011894;28;20064;-83
2020/12/05 03:58:22;;;;;;;8.35;5.22;;;2.70;89.70;;;;;;5015674;28;20487;-84
2020/12/05 04:00:50;;;;;;;7.40;5.32;;;2.70;89.80;;;;;;5025025;28;20056;-84
2020/12/05 04:03:15;;;;;;;8.88;4.45;;;2.70;89.90;;;;;;5014765;28;20096;-83
2020/12/05 04:05:44;;;;;;;12.23;5.20;;;2.70;89.90;;;;;;5030399;28;20423;-83
2020/12/05 04:08:10;;;;;;;7.32;4.80;;;2.70;89.90;;;;;;5030942;28;20476;-83
2020/12/05 04:10:35;;;;;;;7.95;4.85;;;2.70;89.80;;;;;;5032181;28;20029;-84
2020/12/05 04:13:01;;;;;;;8.80;5.05;;;2.70;89.70;;;;;;5031730;28;20061;-83
2020/12/05 04:15:27;;;;;;;7.47;5.30;;;2.70;89.80;;;;;;5034621;28;20025;-84
2020/12/05 04:17:52;;;;;;;8.73;5.15;;;2.70;89.90;;;;;;5044851;28;20028;-84
2020/12/05 04:20:18;;;;;;;6.82;4.95;;;2.70;89.90;;;;;;5017036;28;20026;-83
2020/12/05 04:22:44;;;;;;;7.10;5.20;;;2.70;89.90;;;;;;5018690;28;20046;-82
2020/12/05 04:25:10;;;;;;;6.82;4.72;;;2.70;89.90;;;;;;5035478;28;20029;-83
2020/12/05 04:27:35;;;;;;;8.60;4.90;;;2.70;89.90;;;;;;5034787;28;20494;-84
2020/12/05 04:30:01;;;;;;;6.80;4.82;;;2.60;89.80;;;;;;5051675;28;20380;-84
2020/12/05 04:32:26;;;;;;;10.05;5.07;;;2.60;89.80;;;;;;5035279;28;20034;-84
2020/12/05 04:34:56;;;;;;;7.18;4.90;;;2.60;89.80;;;;;;5001765;28;20033;-83
2020/12/05 04:37:25;;;;;;;6.85;4.88;;;2.60;89.80;;;;;;5034742;28;20390;-83
2020/12/05 04:39:50;;;;;;;8.32;5.15;;;2.60;89.90;;;;;;5018020;28;20494;-83
2020/12/05 04:42:16;;;;;;;9.35;5.70;;;2.50;89.80;;;;;;5018330;28;20029;-84
2020/12/05 04:44:42;;;;;;;6.60;4.90;;;2.50;89.80;;;;;;5018336;28;20478;-84
2020/12/05 04:47:10;;;;;;;8.57;4.70;;;2.50;89.80;;;;;;5017568;28;20616;-84
2020/12/05 04:49:37;;;;;;;9.20;5.53;;;2.40;89.80;;;;;;5034859;28;20036;-83
2020/12/05 04:52:14;;;;;;;8.23;5.38;;;2.40;89.70;;;;;;5034786;28;20029;-83
2020/12/05 04:54:42;;;;;;;8.80;4.82;;;2.30;89.60;;;;;;5027281;28;20029;-84
2020/12/05 04:57:11;;;;;;;9.13;4.75;;;2.30;89.60;;;;;;5038000;28;20025;-83
2020/12/05 04:59:37;;;;;;;7.68;5.18;;;2.30;89.60;;;;;;5048453;28;20386;-84
2020/12/05 05:02:10;;;;;;;6.78;4.85;;;2.30;89.60;;;;;;5035612;28;20084;-83
2020/12/05 05:04:36;;;;;;;7.22;5.07;;;2.20;89.50;;;;;;5008892;28;20042;-83
2020/12/05 05:07:05;;;;;;;8.45;5.85;;;2.20;89.50;;;;;;5025703;28;20510;-83
2020/12/05 05:09:31;;;;;;;7.03;5.05;;;2.20;89.50;;;;;;5014585;28;20057;-83
2020/12/05 05:11:59;;;;;;;8.10;4.80;;;2.20;89.60;;;;;;5034276;28;20175;-83
2020/12/05 05:14:32;;;;;;;7.65;5.13;;;2.10;89.60;;;;;;5034810;28;20390;-84
2020/12/05 05:17:06;;;;;;;6.70;5.20;;;2.10;89.60;;;;;;5031363;28;20470;-84
2020/12/05 05:19:35;;;;;;;6.70;5.25;;;2.10;89.50;;;;;;5014683;28;20120;-83
2020/12/05 05:22:01;;;;;;;8.68;5.05;;;2.10;89.50;;;;;;5020776;28;20033;-84
2020/12/05 05:24:27;;;;;;;8.82;5.50;;;2.10;89.50;;;;;;5032777;28;20045;-84
2020/12/05 05:27:07;;;;;;;8.23;5.50;;;2.10;89.50;;;;;;5034081;28;20037;-84
2020/12/05 05:29:38;;;;;;;8.63;5.63;;;2.10;89.50;;;;;;5014546;28;20030;-83
2020/12/05 05:34:31;;;;;;;7.07;5.07;;;2.00;89.50;;;;;;5033456;28;20172;-83
2020/12/05 05:36:57;;;;;;;7.55;5.15;;;2.00;89.50;;;;;;5022080;28;20072;-84
2020/12/05 05:39:24;;;;;;;7.00;5.00;;;2.00;89.50;;;;;;5025415;28;20030;-83
2020/12/05 05:41:52;;;;;;;6.70;5.20;;;1.90;89.50;;;;;;5029355;28;20152;-84
2020/12/05 05:44:26;;;;;;;6.53;4.65;;;1.90;89.50;;;;;;5017540;28;20034;-83
2020/12/05 05:46:52;;;;;;;7.13;4.95;;;1.90;89.60;;;;;;5031587;28;20029;-83
2020/12/05 05:49:31;;;;;;;6.85;4.93;;;1.90;89.60;;;;;;5003898;28;20038;-84
2020/12/05 05:51:59;;;;;;;7.68;5.32;;;1.90;89.70;;;;;;5033120;28;20045;-83
2020/12/05 05:54:34;;;;;;;8.15;5.53;;;1.90;89.70;;;;;;5016574;28;20040;-84
2020/12/05 05:57:00;;;;;;;9.32;5.50;;;1.90;89.70;;;;;;5034540;28;20117;-83
2020/12/05 05:59:28;;;;;;;8.30;5.47;;;1.90;89.70;;;;;;5033560;28;20633;-83
2020/12/05 06:01:54;;;;;;;7.43;5.50;;;1.90;89.70;;;;;;5032906;28;20375;-83
2020/12/05 06:04:29;;;;;;;7.20;5.45;;;1.90;89.80;;;;;;5050330;28;20030;-83
2020/12/05 06:06:57;;;;;;;6.80;4.85;;;2.00;89.80;;;;;;5032737;28;20053;-83
2020/12/05 06:09:49;;;;;;;6.80;5.38;;;1.90;89.70;;;;;;5033174;28;20032;-83
2020/12/05 06:12:24;;;;;;;7.95;5.20;;;1.90;89.80;;;;;;5025996;28;20045;-85
2020/12/05 06:14:52;;;;;;;7.78;5.40;;;1.90;89.70;;;;;;5033657;28;20502;-83
2020/12/05 06:17:22;;;;;;;7.80;5.97;;;1.90;89.80;;;;;;5014867;28;20025;-84
2020/12/05 06:19:49;;;;;;;7.47;5.38;;;1.90;89.80;;;;;;5015946;28;20056;-85
2020/12/05 06:22:30;;;;;;;6.63;4.88;;;1.90;89.80;;;;;;5032557;28;20109;-83
2020/12/05 06:25:04;;;;;;;8.73;5.55;;;1.90;89.80;;;;;;5031431;28;20517;-84
2020/12/05 06:27:35;;;;;;;8.60;5.80;;;1.80;89.80;;;;;;5025820;28;20029;-83
2020/12/05 06:30:06;;;;;;;6.47;4.65;;;1.80;89.80;;;;;;5024943;28;20108;-83
2020/12/05 06:32:47;;;;;;;6.07;5.20;;;1.80;89.60;;;;;;5013071;28;20369;-83
2020/12/05 06:35:18;;;;;;;6.97;5.13;;;1.80;89.60;;;;;;5008275;28;20040;-83
2020/12/05 06:37:45;;;;;;;;;;;1.80;89.60;;;;;;5013153;28;20034;-84
2020/12/05 06:40:10;;;;;;;8.13;5.28;;;1.80;89.60;;;;;;5028078;28;19913;-84
2020/12/05 06:42:40;;;;;;;9.85;5.32;;;1.70;89.50;;;;;;5031225;28;20040;-83
2020/12/05 06:45:06;;;;;;;7.50;5.22;;;1.70;89.60;;;;;;5013839;28;20065;-83
2020/12/05 06:47:32;;;;;;;8.25;5.43;;;1.70;89.70;;;;;;5022483;28;20136;-83
2020/12/05 06:49:59;;;;;;;10.20;5.93;;;1.70;89.80;;;;;;5024976;28;20526;-83
2020/12/05 06:52:24;;;;;;;9.15;5.38;;;1.70;89.80;;;;;;5032949;28;20061;-84
2020/12/05 06:54:54;;;;;;;7.90;5.63;;;1.70;89.90;;;;;;5032033;28;20060;-85
2020/12/05 06:57:21;;;;;;;7.68;5.65;;;1.70;90.00;;;;;;5032526;28;20083;-83
2020/12/05 06:59:47;;;;;;;7.40;5.30;;;1.80;90.00;;;;;;5038898;28;20038;-83
2020/12/05 07:02:33;;;;;;;8.93;5.47;;;1.70;90.00;;;;;;5031172;28;20041;-83
2020/12/05 07:05:21;;;;;;;8.13;5.40;;;1.80;90.00;;;;;;5029633;28;20045;-84
2020/12/05 07:07:47;;;;;;;9.60;5.45;;;1.80;90.10;;;;;;5017138;28;20502;-83
2020/12/05 07:10:13;;;;;;;9.10;6.00;;;1.80;90.10;;;;;;5012161;28;20034;-83
2020/12/05 07:12:40;;;;;;;8.60;5.72;;;1.80;90.10;;;;;;5002612;28;20097;-82
2020/12/05 07:15:25;;;;;;;8.63;5.80;;;1.80;90.10;;;;;;5016002;28;20475;-84
2020/12/05 07:17:55;;;;;;;7.10;5.63;;;1.80;90.20;;;;;;5054592;28;20036;-85
2020/12/05 07:20:22;;;;;;;8.30;5.80;;;1.80;90.20;;;;;;5027175;28;20033;-84
2020/12/05 07:22:55;;;;;;;9.27;5.78;;;1.80;90.20;;;;;;5045187;28;20113;-83
2020/12/05 07:25:21;;;;;;;9.43;6.25;;;1.90;90.20;;;;;;5031006;28;20039;-83
2020/12/05 07:27:48;;;;;;;10.57;6.05;;;1.90;90.30;;;;;;5031856;28;20021;-83
2020/12/05 07:30:14;;;;;;;7.50;5.35;;;1.90;90.30;;;;;;5031937;28;20376;-83
2020/12/05 07:32:42;;;;;;;8.43;5.53;;;1.90;90.30;;;;;;5000858;28;20112;-83
2020/12/05 07:35:15;;;;;;;9.30;6.03;;;1.90;90.40;;;;;;5044837;28;20022;-84
2020/12/05 07:37:42;;;;;;;7.03;5.82;;;2.00;90.40;;;;;;5007460;28;20120;-83
2020/12/05 07:40:08;;;;;;;8.13;6.03;;;2.00;90.40;;;;;;5052434;28;20105;-85
2020/12/05 07:42:44;;;;;;;9.10;5.90;;;2.00;90.50;;;;;;5044833;28;20454;-83
2020/12/05 07:45:12;;;;;;;10.30;5.85;;;2.10;90.50;;;;;;5026722;28;20033;-84
2020/12/05 07:47:39;;;;;;;7.75;6.15;;;2.10;90.50;;;;;;5011657;28;20034;-84
2020/12/05 07:50:06;;;;;;;7.82;5.90;;;2.10;90.50;;;;;;5031084;28;20095;-83
2020/12/05 07:52:31;;;;;;;9.30;5.70;;;2.10;90.50;;;;;;5030987;28;20360;-83
2020/12/05 07:55:02;;;;;;;7.82;6.00;;;2.10;90.50;;;;;;5030560;28;20052;-86
2020/12/05 07:57:30;;;;;;;7.70;5.73;;;2.20;90.50;;;;;;5029202;28;20021;-85
2020/12/05 08:00:07;;;;;;;7.72;5.97;;;2.20;90.60;;;;;;5031408;28;20048;-85
2020/12/05 08:03:01;;;;;;;8.07;6.22;;;2.20;90.50;;;;;;5025739;28;20034;-85
2020/12/05 08:05:36;;;;;;;9.52;6.57;;;2.20;90.50;;;;;;5017138;28;20131;-85
2020/12/05 08:08:05;;;;;;;8.60;5.97;;;2.20;90.50;;;;;;5025819;28;20101;-85
2020/12/05 08:10:33;;;;;;;9.52;5.95;;;2.20;90.50;;;;;;5029794;28;20589;-87
2020/12/05 08:13:21;;;;;;;8.27;5.70;;;2.20;90.60;;;;;;5021558;28;20034;-86
2020/12/05 08:16:07;;;;;;;9.15;5.90;;;2.20;90.60;;;;;;5017053;28;20105;-84
2020/12/05 08:18:35;;;;;;;7.82;5.75;;;2.20;90.60;;;;;;5028722;28;20500;-84
2020/12/05 08:21:05;;;;;;;9.10;6.15;;;2.20;90.60;;;;;;5025819;28;20025;-85
2020/12/05 08:23:32;;;;;;;7.88;5.45;;;2.30;90.70;;;;;;5030198;28;20433;-84
2020/12/05 08:26:01;;;;;;;5.88;4.95;;;2.30;90.70;;;;;;4996895;28;20053;-85
2020/12/05 08:28:30;;;;;;;8.65;5.38;;;2.30;90.70;;;;;;5029181;28;20109;-85
2020/12/05 08:31:03;;;;;;;7.22;5.20;;;2.40;90.80;;;;;;5027595;28;20455;-84
2020/12/05 08:33:48;;;;;;;8.02;4.90;;;2.40;90.70;;;;;;5025269;28;20021;-84
2020/12/05 08:36:33;;;;;;;6.97;5.05;;;2.40;90.70;;;;;;5029177;28;20502;-84
2020/12/05 08:39:23;;;;;;;7.88;5.40;;;2.50;90.70;;;;;;5030411;28;20017;-85
2020/12/05 08:41:57;;;;;;;6.50;4.97;;;2.60;90.70;;;;;;5030964;28;20021;-85
2020/12/05 08:44:28;;;;;;;6.43;4.60;;;2.60;90.70;;;;;;5030740;28;20084;-85
2020/12/05 08:47:02;;;;;;;8.02;4.90;;;2.70;90.70;;;;;;5018313;28;20083;-84
2020/12/05 08:49:45;;;;;;;6.50;5.00;;;2.70;90.70;;;;;;5012433;28;20029;-84
2020/12/05 08:52:31;;;;;;;7.57;5.10;;;2.80;90.70;;;;;;5029196;28;20117;-87
2020/12/05 08:55:40;;;;;;;7.70;4.75;;;2.80;90.60;;;;;;4997220;28;20068;-85
2020/12/05 08:58:07;;;;;;;6.00;4.63;;;2.90;90.70;;;;;;5025874;28;20037;-85
2020/12/05 09:00:45;;;;;;;6.30;4.72;;;2.90;90.60;;;;;;5035136;28;20025;-85
2020/12/05 09:06:24;;;;;;;7.50;4.97;;;3.00;90.60;;;;;;5019748;28;20058;-88
2020/12/05 09:09:13;;;;;;;7.53;5.03;;;3.10;90.60;;;;;;5032342;28;20029;-86
2020/12/05 09:11:43;;;;;;;7.90;4.85;;;3.10;90.60;;;;;;5034848;28;20036;-86
2020/12/05 09:14:24;;;;;;;6.10;4.65;;;3.10;90.60;;;;;;5037480;28;20037;-85
2020/12/05 09:16:50;;;;;;;6.40;4.57;;;3.20;90.60;;;;;;5033181;28;20025;-84
2020/12/05 09:19:34;;;;;;;7.18;5.32;;;3.20;90.60;;;;;;5033967;28;20096;-85
2020/12/05 09:22:02;;;;;;;9.80;5.53;;;3.20;90.60;;;;;;5029455;28;20036;-84
2020/12/05 09:24:48;;;;;;;7.18;5.00;;;3.30;90.60;;;;;;5024954;28;20368;-84
2020/12/05 09:27:14;;;;;;;6.28;5.22;;;3.30;90.60;;;;;;5028959;28;20113;-85
2020/12/05 09:29:57;;;;;;;7.28;4.82;;;3.40;90.60;;;;;;5026832;28;20113;-87
2020/12/05 09:32:41;;;;;;;7.15;4.72;;;3.50;90.60;;;;;;5016411;28;20029;-84
2020/12/05 09:35:25;;;;;;;5.30;4.38;;;3.40;90.50;;;;;;5025819;28;20060;-90
2020/12/05 09:37:53;;;;;;;5.93;5.10;;;3.50;90.50;;;;;;5033160;28;20025;-88
2020/12/05 09:40:22;;;;;;;8.18;4.43;;;3.60;90.60;;;;;;5021551;28;20569;-84
2020/12/05 09:42:54;;;;;;;6.15;4.43;;;3.60;90.50;;;;;;5032150;28;20092;-87
2020/12/05 09:45:39;;;;;;;;;;;;;;;;;;;;;
2020/12/05 09:48:09;;;;;;;4.95;4.22;;;3.70;90.50;;;;;;5034816;28;20418;-86
2020/12/05 09:51:00;;;;;;;5.05;4.28;;;3.70;90.50;;;;;;5034762;28;20293;-86
2020/12/05 09:56:22;;;;;;;6.50;4.68;;;3.90;90.60;;;;;;5032924;28;20441;-86
2020/12/05 09:59:08;;;;;;;5.60;4.45;;;3.90;90.50;;;;;;5033655;28;20534;-86
2020/12/05 10:02:08;;;;;;;4.47;3.72;;;3.90;90.50;;;;;;5034846;28;20032;-86
2020/12/05 10:05:01;;;;;;;5.35;3.90;;;4.00;90.50;;;;;;5033015;28;20537;-86
2020/12/05 10:07:27;;;;;;;5.18;3.70;;;4.00;90.50;;;;;;5033176;28;20124;-86
2020/12/05 10:09:57;;;;;;;8.43;4.35;;;4.10;90.50;;;;;;5018611;28;20181;-87
2020/12/05 10:13:02;;;;;;;;;;;;;;;;;;;;;
2020/12/05 10:15:33;;;;;;;5.93;3.35;;;4.20;90.50;;;;;;5031909;28;20045;-86
2020/12/05 10:18:01;;;;;;;5.38;3.92;;;4.20;90.50;;;;;;5013004;28;20117;-87
2020/12/05 10:20:37;;;;;;;;;;;;;;;;;;;;;
2020/12/05 10:23:14;;;;;;;4.03;3.38;;;4.30;90.40;;;;;;5034357;28;20505;-86
2020/12/05 10:26:03;;;;;;;6.15;3.50;;;4.40;90.40;;;;;;5017280;28;20374;-86
2020/12/05 10:28:59;;;;;;;;;;;;;;;;;;;;;
2020/12/05 10:31:47;;;;;;;4.28;3.33;;;4.50;90.40;;;;;;5034268;28;20035;-86
2020/12/05 10:34:54;;;;;;;4.47;3.60;;;4.50;90.30;;;;;;5032646;28;20402;-90
2020/12/05 10:37:40;;;;;;;3.92;3.00;;;4.60;90.30;;;;;;5032345;28;20065;-86
2020/12/05 10:43:22;;;;;;;;;;;;;;;;;;;;;
2020/12/05 10:46:11;;;;;;;3.65;3.15;;;4.70;90.20;;;;;;5033556;28;20378;-86
2020/12/05 10:48:45;;;;;;;3.92;3.33;;;4.70;90.50;;;;;;5033001;28;20351;-86
2020/12/05 10:54:24;;;;;;;4.82;3.40;;;4.80;90.20;;;;;;5019657;28;20047;-87
2020/12/05 10:57:17;;;;;;;;;;;;;;;;;;;;;
2020/12/05 10:59:54;;;;;;;4.25;3.58;;;4.90;90.20;;;;;;5025737;28;20021;-86
2020/12/05 11:02:25;;;;;;;4.97;3.50;;;5.00;90.10;;;;;;4996314;28;20089;-86
2020/12/05 11:04:58;;;;;;;4.50;3.50;;;5.00;90.10;;;;;;5012507;28;20057;-86
2020/12/05 11:07:37;;;;;;;;;;;;;;;;;;;;;
2020/12/05 11:10:25;;;;;;;;;;;;;;;;;;;;;
2020/12/05 11:13:07;;;;;;;4.13;3.10;;;5.10;90.00;;;;;;5033619;28;20455;-87
2020/12/05 11:16:05;;;;;;;;;;;;;;;;;;;;;
2020/12/05 11:18:59;;;;;;;4.22;3.08;;;5.20;89.90;;;;;;5031828;28;20025;-87
2020/12/05 11:21:35;;;;;;;5.20;3.10;;;5.20;89.80;;;;;;5032183;28;20030;-88
2020/12/05 11:24:05;;;;;;;4.18;3.03;;;5.30;89.60;;;;;;5032144;28;20425;-87
2020/12/05 11:29:25;;;;;;;3.75;2.58;;;5.30;89.00;;;;;;5031993;28;20037;-87
2020/12/05 11:32:54;;;;;;;3.85;2.90;;;5.40;88.90;;;;;;5031575;28;20121;-87
2020/12/05 11:38:46;;;;;;;;;;;;;;;;;;;;;
2020/12/05 11:41:30;;;;;;;4.93;3.05;;;5.50;88.10;;;;;;5031258;28;20026;-87
2020/12/05 11:44:03;;;;;;;3.03;2.55;;;5.60;87.40;;;;;;5017703;28;20430;-87
2020/12/05 11:47:02;;;;;;;;;;;;;;;;;;;;;
2020/12/05 11:49:45;;;;;;;;;;;;;;;;;;;;;
2020/12/05 11:52:36;;;;;;;4.75;2.80;;;5.70;86.50;;;;;;5032820;28;20021;-87
2020/12/05 11:55:33;;;;;;;3.40;2.65;;;5.70;86.40;;;;;;5031302;28;20021;-87
2020/12/05 11:58:14;;;;;;;;;;;;;;;;;;;;;
2020/12/05 12:01:19;;;;;;;;;;;;;;;;;;;;;
2020/12/05 12:03:58;;;;;;;3.33;2.40;;;5.80;86.30;;;;;;5012013;28;20050;-87
2020/12/05 12:06:56;;;;;;;6.47;2.80;;;5.80;86.30;;;;;;5011727;28;20458;-88
2020/12/05 12:12:26;;;;;;;3.70;2.45;;;5.80;86.30;;;;;;5012353;28;20470;-87
2020/12/05 12:15:13;;;;;;;4.20;2.70;;;5.90;86.30;;;;;;4997106;28;20373;-87
2020/12/05 12:18:00;;;;;;;;;;;;;;;;;;;;;
2020/12/05 12:20:34;;;;;;;4.07;2.50;;;5.90;86.00;;;;;;5012928;28;20037;-87
2020/12/05 12:23:20;;;;;;;;;;;;;;;;;;;;;
2020/12/05 12:25:56;;;;;;;3.40;2.50;;;5.90;85.70;;;;;;5012913;28;20044;-87
2020/12/05 12:31:31;;;;;;;2.85;2.50;;;6.00;85.40;;;;;;4998203;28;20475;-88
2020/12/05 12:34:25;;;;;;;4.10;2.92;;;6.00;85.00;;;;;;5015203;28;20490;-87
2020/12/05 12:37:22;;;;;;;;;;;;;;;;;;;;;
2020/12/05 12:39:53;;;;;;;5.85;2.70;;;6.00;84.50;;;;;;5038534;28;20028;-88
2020/12/05 12:42:38;;;;;;;;;;;;;;;;;;;;;
2020/12/05 12:45:21;;;;;;;3.80;2.30;;;6.00;84.80;;;;;;5035457;28;20041;-88
2020/12/05 12:50:49;;;;;;;;;;;;;;;;;;;;;
2020/12/05 12:53:26;;;;;;;3.08;2.40;;;6.00;84.70;;;;;;5036038;28;20037;-87
2020/12/05 12:55:55;;;;;;;3.63;2.80;;;6.00;84.80;;;;;;5034283;28;20029;-87
2020/12/05 13:01:36;;;;;;;3.67;2.80;;;6.10;84.70;;;;;;4998490;28;20069;-88
2020/12/05 13:04:12;;;;;;;5.13;2.67;;;6.10;84.60;;;;;;5035045;28;20089;-88
2020/12/05 13:06:46;;;;;;;6.47;2.60;;;6.10;84.70;;;;;;5017501;28;20045;-88
2020/12/05 13:09:34;;;;;;;4.63;2.70;;;6.10;84.70;;;;;;5015994;28;20018;-88
2020/12/05 13:12:12;;;;;;;3.47;2.47;;;6.10;84.80;;;;;;5016493;28;20079;-88
2020/12/05 13:25:31;;;;;;;3.05;2.22;;;6.00;84.50;;;;;;4975276;28;20086;-87
2020/12/05 13:27:57;;;;;;;4.22;3.35;;;5.90;84.40;;;;;;4990459;28;20546;-87
2020/12/05 13:30:54;;;;;;;3.17;2.58;;;5.90;84.40;;;;;;5028417;28;20042;-89
2020/12/05 13:33:25;;;;;;;3.42;2.78;;;6.00;84.70;;;;;;5027601;28;20053;-89
2020/12/05 13:36:00;;;;;;;6.57;2.45;;;6.00;85.40;;;;;;5018798;28;20407;-90
2020/12/05 13:38:47;;;;;;;;;;;;;;;;;;;;;
2020/12/05 13:41:29;;;;;;;3.83;2.70;;;6.00;84.70;;;;;;5036382;28;20473;-88
2020/12/05 13:43:59;;;;;;;3.30;2.50;;;5.90;84.60;;;;;;5035134;28;20037;-88
2020/12/05 13:46:48;;;;;;;2.78;2.40;;;6.00;84.60;;;;;;5051973;28;20462;-88
2020/12/05 13:49:19;;;;;;;4.35;2.15;;;5.90;84.50;;;;;;5029682;28;20033;-90
2020/12/05 13:51:57;;;;;;;3.25;2.58;;;5.90;84.50;;;;;;5017378;28;20026;-89
2020/12/05 13:54:58;;;;;;;3.08;2.38;;;5.90;84.50;;;;;;5025815;28;20036;-90
2020/12/05 13:57:36;;;;;;;;;;;;;;;;;;;;;
2020/12/05 14:00:12;;;;;;;3.45;2.80;;;5.90;84.60;;;;;;5045452;28;20026;-92
2020/12/05 14:03:05;;;;;;;3.53;2.80;;;5.90;84.60;;;;;;5031349;28;20104;-90
2020/12/05 14:08:28;;;;;;;4.70;2.85;;;6.00;84.70;;;;;;5023767;28;20458;-90
2020/12/05 14:11:05;;;;;;;3.17;2.63;;;5.90;84.60;;;;;;5035214;28;20348;-90
2020/12/05 14:17:04;;;;;;;;;;;;;;;;;;;;;
2020/12/05 14:19:47;;;;;;;5.10;3.00;;;5.90;84.60;;;;;;4994069;28;20053;-89
2020/12/05 14:22:18;;;;;;;5.05;3.05;;;6.00;84.70;;;;;;5011715;28;20030;-89
2020/12/05 14:24:57;;;;;;;;;;;;;;;;;;;;;
2020/12/05 14:30:54;;;;;;;;;;;;;;;;;;;;;
2020/12/05 14:36:58;;;;;;;4.93;3.40;;;6.00;84.70;;;;;;4953560;29;20481;-89
2020/12/05 14:39:41;;;;;;;;;;;;;;;;;;;;;
2020/12/05 14:42:20;;;;;;;;;;;;;;;;;;;;;
2020/12/05 14:45:06;;;;;;;;;;;;;;;;;;;;;
2020/12/05 14:47:52;;;;;;;;;;;;;;;;;;;;;
2020/12/05 14:50:38;;;;;;;4.82;3.08;;;6.00;84.70;;;;;;4954335;29;20035;-90
2020/12/05 14:53:18;;;;;;;3.25;2.88;;;6.00;84.80;;;;;;4976582;28;20030;-89
2020/12/05 14:56:01;;;;;;;;;;;;;;;;;;;;;
2020/12/05 14:59:00;;;;;;;;;;;;;;;;;;;;;
2020/12/05 15:02:25;;;;;;;5.90;3.08;;;6.00;84.80;;;;;;5024484;28;20033;-93
2020/12/05 15:05:03;;;;;;;;;;;;;;;;;;;;;